sensor_id;sensor_type;location;lat;lon;timestamp;P1;durP1;ratioP1;P2;durP2;ratioP2
76256;SDS011;65074;50.436;8.672;2023-06-19T00:00:27;9.80;;;7.90;;
76256;SDS011;65074;50.436;8.672;2023-06-19T00:02:52;12.40;;;8.55;;
76256;SDS011;65074;50.436;8.672;2023-06-19T00:05:17;12.20;;;9.27;;
76256;SDS011;65074;50.436;8.672;2023-06-19T00:07:42;11.13;;;8.83;;
76256;SDS011;65074;50.436;8.672;2023-06-19T00:10:08;11.07;;;9.70;;
76256;SDS011;65074;50.436;8.672;2023-06-19T00:12:33;12.73;;;9.73;;
76256;SDS011;65074;50.436;8.672;2023-06-19T00:14:59;13.50;;;9.77;;
76256;SDS011;65074;50.436;8.672;2023-06-19T00:17:24;13.27;;;9.53;;
76256;SDS011;65074;50.436;8.672;2023-06-19T00:19:51;11.70;;;9.18;;
76256;SDS011;65074;50.436;8.672;2023-06-19T00:22:16;10.50;;;8.60;;
76256;SDS011;65074;50.436;8.672;2023-06-19T00:24:42;12.27;;;9.20;;
76256;SDS011;65074;50.436;8.672;2023-06-19T00:27:07;13.33;;;9.20;;
76256;SDS011;65074;50.436;8.672;2023-06-19T00:29:32;10.70;;;8.13;;
76256;SDS011;65074;50.436;8.672;2023-06-19T00:31:58;10.47;;;8.87;;
76256;SDS011;65074;50.436;8.672;2023-06-19T00:34:23;11.93;;;9.05;;
76256;SDS011;65074;50.436;8.672;2023-06-19T00:36:49;11.02;;;8.18;;
76256;SDS011;65074;50.436;8.672;2023-06-19T00:39:14;9.05;;;7.47;;
76256;SDS011;65074;50.436;8.672;2023-06-19T00:41:40;9.77;;;8.07;;
76256;SDS011;65074;50.436;8.672;2023-06-19T00:44:05;10.60;;;7.90;;
76256;SDS011;65074;50.436;8.672;2023-06-19T00:46:30;10.70;;;8.77;;
76256;SDS011;65074;50.436;8.672;2023-06-19T00:48:56;11.68;;;8.65;;
76256;SDS011;65074;50.436;8.672;2023-06-19T00:51:22;9.80;;;8.20;;
76256;SDS011;65074;50.436;8.672;2023-06-19T00:53:47;11.33;;;8.43;;
76256;SDS011;65074;50.436;8.672;2023-06-19T00:56:12;9.77;;;7.80;;
76256;SDS011;65074;50.436;8.672;2023-06-19T00:58:37;9.60;;;8.20;;
76256;SDS011;65074;50.436;8.672;2023-06-19T01:01:03;9.98;;;8.32;;
76256;SDS011;65074;50.436;8.672;2023-06-19T01:03:29;10.20;;;8.30;;
76256;SDS011;65074;50.436;8.672;2023-06-19T01:05:54;9.82;;;7.88;;
76256;SDS011;65074;50.436;8.672;2023-06-19T01:08:33;9.45;;;8.27;;
76256;SDS011;65074;50.436;8.672;2023-06-19T01:11:02;10.75;;;8.40;;
76256;SDS011;65074;50.436;8.672;2023-06-19T01:13:37;9.65;;;8.45;;
76256;SDS011;65074;50.436;8.672;2023-06-19T01:16:05;10.27;;;7.30;;
76256;SDS011;65074;50.436;8.672;2023-06-19T01:18:32;10.85;;;8.55;;
76256;SDS011;65074;50.436;8.672;2023-06-19T01:23:36;7.90;;;6.78;;
76256;SDS011;65074;50.436;8.672;2023-06-19T01:26:01;9.20;;;7.63;;
76256;SDS011;65074;50.436;8.672;2023-06-19T01:28:26;9.93;;;7.43;;
76256;SDS011;65074;50.436;8.672;2023-06-19T01:30:51;11.23;;;7.70;;
76256;SDS011;65074;50.436;8.672;2023-06-19T01:33:20;10.98;;;8.27;;
76256;SDS011;65074;50.436;8.672;2023-06-19T01:35:47;14.57;;;7.88;;
76256;SDS011;65074;50.436;8.672;2023-06-19T01:38:13;11.00;;;8.15;;
76256;SDS011;65074;50.436;8.672;2023-06-19T01:40:39;10.20;;;7.82;;
76256;SDS011;65074;50.436;8.672;2023-06-19T01:43:05;9.38;;;7.70;;
76256;SDS011;65074;50.436;8.672;2023-06-19T01:45:30;12.10;;;8.13;;
76256;SDS011;65074;50.436;8.672;2023-06-19T01:47:56;8.85;;;7.40;;
76256;SDS011;65074;50.436;8.672;2023-06-19T01:50:21;10.82;;;7.70;;
76256;SDS011;65074;50.436;8.672;2023-06-19T01:52:47;11.93;;;7.78;;
76256;SDS011;65074;50.436;8.672;2023-06-19T01:55:12;11.38;;;7.60;;
76256;SDS011;65074;50.436;8.672;2023-06-19T01:57:38;8.15;;;7.20;;
76256;SDS011;65074;50.436;8.672;2023-06-19T02:00:04;8.27;;;6.93;;
76256;SDS011;65074;50.436;8.672;2023-06-19T02:02:39;9.52;;;7.43;;
76256;SDS011;65074;50.436;8.672;2023-06-19T02:05:04;8.10;;;7.17;;
76256;SDS011;65074;50.436;8.672;2023-06-19T02:07:29;8.88;;;7.65;;
76256;SDS011;65074;50.436;8.672;2023-06-19T02:09:55;8.37;;;6.60;;
76256;SDS011;65074;50.436;8.672;2023-06-19T02:12:21;9.05;;;6.75;;
76256;SDS011;65074;50.436;8.672;2023-06-19T02:14:46;9.50;;;7.37;;
76256;SDS011;65074;50.436;8.672;2023-06-19T02:17:11;7.67;;;6.47;;
76256;SDS011;65074;50.436;8.672;2023-06-19T02:19:37;8.35;;;6.28;;
76256;SDS011;65074;50.436;8.672;2023-06-19T02:22:02;8.87;;;6.30;;
76256;SDS011;65074;50.436;8.672;2023-06-19T02:24:27;8.60;;;7.00;;
76256;SDS011;65074;50.436;8.672;2023-06-19T02:26:53;8.18;;;6.25;;
76256;SDS011;65074;50.436;8.672;2023-06-19T02:29:18;6.95;;;6.03;;
76256;SDS011;65074;50.436;8.672;2023-06-19T02:31:44;10.02;;;6.32;;
76256;SDS011;65074;50.436;8.672;2023-06-19T02:34:09;7.65;;;6.22;;
76256;SDS011;65074;50.436;8.672;2023-06-19T02:36:35;7.93;;;6.35;;
76256;SDS011;65074;50.436;8.672;2023-06-19T02:39:01;8.93;;;6.80;;
76256;SDS011;65074;50.436;8.672;2023-06-19T02:41:26;8.07;;;7.15;;
76256;SDS011;65074;50.436;8.672;2023-06-19T02:43:52;8.75;;;6.38;;
76256;SDS011;65074;50.436;8.672;2023-06-19T02:46:17;8.07;;;6.45;;
76256;SDS011;65074;50.436;8.672;2023-06-19T02:48:43;8.00;;;6.10;;
76256;SDS011;65074;50.436;8.672;2023-06-19T02:51:08;8.90;;;5.93;;
76256;SDS011;65074;50.436;8.672;2023-06-19T02:53:33;10.02;;;6.88;;
76256;SDS011;65074;50.436;8.672;2023-06-19T02:55:59;7.70;;;6.20;;
76256;SDS011;65074;50.436;8.672;2023-06-19T02:58:24;6.73;;;6.00;;
76256;SDS011;65074;50.436;8.672;2023-06-19T03:00:50;9.57;;;6.75;;
76256;SDS011;65074;50.436;8.672;2023-06-19T03:03:15;10.25;;;6.25;;
76256;SDS011;65074;50.436;8.672;2023-06-19T03:05:41;8.63;;;6.57;;
76256;SDS011;65074;50.436;8.672;2023-06-19T03:08:06;7.47;;;6.47;;
76256;SDS011;65074;50.436;8.672;2023-06-19T03:10:32;10.00;;;6.15;;
76256;SDS011;65074;50.436;8.672;2023-06-19T03:12:57;7.88;;;6.57;;
76256;SDS011;65074;50.436;8.672;2023-06-19T03:15:24;7.93;;;6.63;;
76256;SDS011;65074;50.436;8.672;2023-06-19T03:17:50;10.23;;;6.53;;
76256;SDS011;65074;50.436;8.672;2023-06-19T03:20:16;10.10;;;7.20;;
76256;SDS011;65074;50.436;8.672;2023-06-19T03:22:48;10.25;;;6.55;;
76256;SDS011;65074;50.436;8.672;2023-06-19T03:25:15;9.77;;;6.72;;
76256;SDS011;65074;50.436;8.672;2023-06-19T03:27:41;8.55;;;6.95;;
76256;SDS011;65074;50.436;8.672;2023-06-19T03:30:07;10.03;;;8.07;;
76256;SDS011;65074;50.436;8.672;2023-06-19T03:32:40;10.38;;;7.65;;
76256;SDS011;65074;50.436;8.672;2023-06-19T03:35:08;10.00;;;7.97;;
76256;SDS011;65074;50.436;8.672;2023-06-19T03:37:39;10.43;;;7.97;;
76256;SDS011;65074;50.436;8.672;2023-06-19T03:40:04;13.85;;;8.38;;
76256;SDS011;65074;50.436;8.672;2023-06-19T03:42:34;8.85;;;6.50;;
76256;SDS011;65074;50.436;8.672;2023-06-19T03:45:00;8.20;;;6.95;;
76256;SDS011;65074;50.436;8.672;2023-06-19T03:47:26;9.77;;;7.43;;
76256;SDS011;65074;50.436;8.672;2023-06-19T03:49:51;9.20;;;7.23;;
76256;SDS011;65074;50.436;8.672;2023-06-19T03:52:17;12.85;;;7.05;;
76256;SDS011;65074;50.436;8.672;2023-06-19T03:54:43;11.57;;;6.80;;
76256;SDS011;65074;50.436;8.672;2023-06-19T03:57:08;11.10;;;6.37;;
76256;SDS011;65074;50.436;8.672;2023-06-19T03:59:33;8.57;;;5.75;;
76256;SDS011;65074;50.436;8.672;2023-06-19T04:01:59;7.78;;;6.30;;
76256;SDS011;65074;50.436;8.672;2023-06-19T04:04:24;10.60;;;7.10;;
76256;SDS011;65074;50.436;8.672;2023-06-19T04:06:49;7.57;;;6.23;;
76256;SDS011;65074;50.436;8.672;2023-06-19T04:09:14;7.87;;;6.30;;
76256;SDS011;65074;50.436;8.672;2023-06-19T04:11:40;7.93;;;6.47;;
76256;SDS011;65074;50.436;8.672;2023-06-19T04:14:05;7.45;;;6.40;;
76256;SDS011;65074;50.436;8.672;2023-06-19T04:16:30;7.63;;;6.13;;
76256;SDS011;65074;50.436;8.672;2023-06-19T04:18:56;7.07;;;5.97;;
76256;SDS011;65074;50.436;8.672;2023-06-19T04:21:22;9.10;;;6.00;;
76256;SDS011;65074;50.436;8.672;2023-06-19T04:23:47;7.93;;;6.43;;
76256;SDS011;65074;50.436;8.672;2023-06-19T04:26:12;11.27;;;7.57;;
76256;SDS011;65074;50.436;8.672;2023-06-19T04:28:38;6.82;;;5.80;;
76256;SDS011;65074;50.436;8.672;2023-06-19T04:31:04;8.98;;;6.35;;
76256;SDS011;65074;50.436;8.672;2023-06-19T04:33:30;11.25;;;7.78;;
76256;SDS011;65074;50.436;8.672;2023-06-19T04:35:55;9.95;;;7.55;;
76256;SDS011;65074;50.436;8.672;2023-06-19T04:38:21;10.90;;;8.40;;
76256;SDS011;65074;50.436;8.672;2023-06-19T04:40:51;10.70;;;8.00;;
76256;SDS011;65074;50.436;8.672;2023-06-19T04:43:16;12.52;;;8.40;;
76256;SDS011;65074;50.436;8.672;2023-06-19T04:45:42;12.23;;;9.05;;
76256;SDS011;65074;50.436;8.672;2023-06-19T04:48:07;10.20;;;7.55;;
76256;SDS011;65074;50.436;8.672;2023-06-19T04:50:32;11.27;;;8.30;;
76256;SDS011;65074;50.436;8.672;2023-06-19T04:52:58;15.03;;;8.77;;
76256;SDS011;65074;50.436;8.672;2023-06-19T04:55:23;12.73;;;8.07;;
76256;SDS011;65074;50.436;8.672;2023-06-19T04:57:50;11.48;;;7.82;;
76256;SDS011;65074;50.436;8.672;2023-06-19T05:00:16;9.95;;;8.25;;
76256;SDS011;65074;50.436;8.672;2023-06-19T05:02:44;12.60;;;8.27;;
76256;SDS011;65074;50.436;8.672;2023-06-19T05:05:10;11.77;;;7.93;;
76256;SDS011;65074;50.436;8.672;2023-06-19T05:07:36;10.10;;;8.30;;
76256;SDS011;65074;50.436;8.672;2023-06-19T05:10:01;14.13;;;8.60;;
76256;SDS011;65074;50.436;8.672;2023-06-19T05:12:27;11.93;;;8.88;;
76256;SDS011;65074;50.436;8.672;2023-06-19T05:14:52;11.50;;;9.10;;
76256;SDS011;65074;50.436;8.672;2023-06-19T05:17:17;13.67;;;8.10;;
76256;SDS011;65074;50.436;8.672;2023-06-19T05:19:43;11.53;;;8.30;;
76256;SDS011;65074;50.436;8.672;2023-06-19T05:22:08;10.80;;;8.17;;
76256;SDS011;65074;50.436;8.672;2023-06-19T05:24:33;12.67;;;9.00;;
76256;SDS011;65074;50.436;8.672;2023-06-19T05:26:58;11.40;;;8.03;;
76256;SDS011;65074;50.436;8.672;2023-06-19T05:29:24;11.93;;;8.32;;
76256;SDS011;65074;50.436;8.672;2023-06-19T05:31:49;12.82;;;8.48;;
76256;SDS011;65074;50.436;8.672;2023-06-19T05:34:15;16.42;;;8.80;;
76256;SDS011;65074;50.436;8.672;2023-06-19T05:36:40;14.33;;;8.73;;
76256;SDS011;65074;50.436;8.672;2023-06-19T05:39:05;18.30;;;10.00;;
76256;SDS011;65074;50.436;8.672;2023-06-19T05:41:30;12.83;;;8.40;;
76256;SDS011;65074;50.436;8.672;2023-06-19T05:43:56;10.40;;;8.17;;
76256;SDS011;65074;50.436;8.672;2023-06-19T05:46:21;11.73;;;8.32;;
76256;SDS011;65074;50.436;8.672;2023-06-19T05:48:47;10.95;;;7.65;;
76256;SDS011;65074;50.436;8.672;2023-06-19T05:51:12;11.40;;;7.28;;
76256;SDS011;65074;50.436;8.672;2023-06-19T05:53:37;9.10;;;6.70;;
76256;SDS011;65074;50.436;8.672;2023-06-19T05:56:04;12.05;;;7.82;;
76256;SDS011;65074;50.436;8.672;2023-06-19T05:58:30;11.50;;;7.47;;
76256;SDS011;65074;50.436;8.672;2023-06-19T06:00:55;9.90;;;7.67;;
76256;SDS011;65074;50.436;8.672;2023-06-19T06:03:23;11.75;;;7.00;;
76256;SDS011;65074;50.436;8.672;2023-06-19T06:05:50;7.53;;;6.38;;
76256;SDS011;65074;50.436;8.672;2023-06-19T06:08:15;10.18;;;6.55;;
76256;SDS011;65074;50.436;8.672;2023-06-19T06:10:40;9.00;;;5.63;;
76256;SDS011;65074;50.436;8.672;2023-06-19T06:13:05;5.67;;;3.93;;
76256;SDS011;65074;50.436;8.672;2023-06-19T06:15:31;5.17;;;3.60;;
76256;SDS011;65074;50.436;8.672;2023-06-19T06:17:56;3.83;;;3.53;;
76256;SDS011;65074;50.436;8.672;2023-06-19T06:20:21;3.37;;;2.73;;
76256;SDS011;65074;50.436;8.672;2023-06-19T06:22:46;3.10;;;2.80;;
76256;SDS011;65074;50.436;8.672;2023-06-19T06:25:12;2.73;;;2.43;;
76256;SDS011;65074;50.436;8.672;2023-06-19T06:27:37;3.73;;;2.70;;
76256;SDS011;65074;50.436;8.672;2023-06-19T06:30:02;3.37;;;2.77;;
76256;SDS011;65074;50.436;8.672;2023-06-19T06:32:28;3.28;;;2.45;;
76256;SDS011;65074;50.436;8.672;2023-06-19T06:34:55;3.05;;;2.53;;
76256;SDS011;65074;50.436;8.672;2023-06-19T06:37:21;3.97;;;2.60;;
76256;SDS011;65074;50.436;8.672;2023-06-19T06:39:49;2.78;;;2.50;;
76256;SDS011;65074;50.436;8.672;2023-06-19T06:42:15;2.50;;;2.13;;
76256;SDS011;65074;50.436;8.672;2023-06-19T06:44:40;3.22;;;2.30;;
76256;SDS011;65074;50.436;8.672;2023-06-19T06:47:05;3.07;;;2.50;;
76256;SDS011;65074;50.436;8.672;2023-06-19T06:49:30;3.03;;;2.33;;
76256;SDS011;65074;50.436;8.672;2023-06-19T06:51:56;2.93;;;2.30;;
76256;SDS011;65074;50.436;8.672;2023-06-19T06:54:21;3.20;;;2.50;;
76256;SDS011;65074;50.436;8.672;2023-06-19T06:56:46;2.67;;;2.22;;
76256;SDS011;65074;50.436;8.672;2023-06-19T06:59:13;2.95;;;2.40;;
76256;SDS011;65074;50.436;8.672;2023-06-19T07:01:38;3.17;;;2.35;;
76256;SDS011;65074;50.436;8.672;2023-06-19T07:04:03;2.85;;;2.25;;
76256;SDS011;65074;50.436;8.672;2023-06-19T07:06:29;3.30;;;2.20;;
76256;SDS011;65074;50.436;8.672;2023-06-19T07:08:54;2.97;;;2.40;;
76256;SDS011;65074;50.436;8.672;2023-06-19T07:11:19;2.47;;;2.10;;
76256;SDS011;65074;50.436;8.672;2023-06-19T07:13:44;3.63;;;2.40;;
76256;SDS011;65074;50.436;8.672;2023-06-19T07:16:09;2.77;;;2.17;;
76256;SDS011;65074;50.436;8.672;2023-06-19T07:18:35;2.33;;;1.97;;
76256;SDS011;65074;50.436;8.672;2023-06-19T07:21:03;2.85;;;2.55;;
76256;SDS011;65074;50.436;8.672;2023-06-19T07:23:31;3.78;;;2.50;;
76256;SDS011;65074;50.436;8.672;2023-06-19T07:25:56;3.30;;;2.47;;
76256;SDS011;65074;50.436;8.672;2023-06-19T07:28:21;3.93;;;2.67;;
76256;SDS011;65074;50.436;8.672;2023-06-19T07:30:46;3.80;;;2.90;;
76256;SDS011;65074;50.436;8.672;2023-06-19T07:33:13;4.05;;;2.80;;
76256;SDS011;65074;50.436;8.672;2023-06-19T07:35:38;4.00;;;3.27;;
76256;SDS011;65074;50.436;8.672;2023-06-19T07:38:03;4.40;;;3.10;;
76256;SDS011;65074;50.436;8.672;2023-06-19T07:40:28;3.30;;;2.63;;
76256;SDS011;65074;50.436;8.672;2023-06-19T07:42:53;3.60;;;2.80;;
76256;SDS011;65074;50.436;8.672;2023-06-19T07:45:19;4.43;;;3.10;;
76256;SDS011;65074;50.436;8.672;2023-06-19T07:47:53;7.25;;;3.60;;
76256;SDS011;65074;50.436;8.672;2023-06-19T07:50:18;4.40;;;2.80;;
76256;SDS011;65074;50.436;8.672;2023-06-19T07:52:43;4.10;;;3.20;;
76256;SDS011;65074;50.436;8.672;2023-06-19T07:55:08;4.67;;;3.57;;
76256;SDS011;65074;50.436;8.672;2023-06-19T07:57:34;4.07;;;3.63;;
76256;SDS011;65074;50.436;8.672;2023-06-19T08:00:01;4.07;;;3.67;;
76256;SDS011;65074;50.436;8.672;2023-06-19T08:02:37;4.57;;;3.95;;
76256;SDS011;65074;50.436;8.672;2023-06-19T08:05:02;5.22;;;3.97;;
76256;SDS011;65074;50.436;8.672;2023-06-19T08:07:28;5.80;;;4.40;;
76256;SDS011;65074;50.436;8.672;2023-06-19T08:09:53;5.13;;;4.32;;
76256;SDS011;65074;50.436;8.672;2023-06-19T08:12:18;5.93;;;4.40;;
76256;SDS011;65074;50.436;8.672;2023-06-19T08:14:43;5.17;;;4.27;;
76256;SDS011;65074;50.436;8.672;2023-06-19T08:17:09;3.97;;;3.57;;
76256;SDS011;65074;50.436;8.672;2023-06-19T08:19:34;4.60;;;3.80;;
76256;SDS011;65074;50.436;8.672;2023-06-19T08:21:59;4.10;;;3.70;;
76256;SDS011;65074;50.436;8.672;2023-06-19T08:24:24;4.87;;;3.73;;
76256;SDS011;65074;50.436;8.672;2023-06-19T08:26:50;6.03;;;4.13;;
76256;SDS011;65074;50.436;8.672;2023-06-19T08:29:16;5.40;;;3.92;;
76256;SDS011;65074;50.436;8.672;2023-06-19T08:31:42;6.15;;;3.72;;
76256;SDS011;65074;50.436;8.672;2023-06-19T08:34:07;4.97;;;4.13;;
76256;SDS011;65074;50.436;8.672;2023-06-19T08:36:34;4.47;;;3.60;;
76256;SDS011;65074;50.436;8.672;2023-06-19T08:39:00;5.00;;;4.05;;
76256;SDS011;65074;50.436;8.672;2023-06-19T08:41:25;4.55;;;3.50;;
76256;SDS011;65074;50.436;8.672;2023-06-19T08:43:50;6.55;;;3.65;;
76256;SDS011;65074;50.436;8.672;2023-06-19T08:46:16;8.97;;;3.73;;
76256;SDS011;65074;50.436;8.672;2023-06-19T08:48:48;4.35;;;3.85;;
76256;SDS011;65074;50.436;8.672;2023-06-19T08:51:13;4.10;;;3.70;;
76256;SDS011;65074;50.436;8.672;2023-06-19T08:53:46;4.80;;;3.92;;
76256;SDS011;65074;50.436;8.672;2023-06-19T08:56:11;5.40;;;4.00;;
76256;SDS011;65074;50.436;8.672;2023-06-19T08:58:36;4.10;;;3.38;;
76256;SDS011;65074;50.436;8.672;2023-06-19T09:01:02;5.80;;;4.38;;
76256;SDS011;65074;50.436;8.672;2023-06-19T09:03:27;4.18;;;3.63;;
76256;SDS011;65074;50.436;8.672;2023-06-19T09:05:53;4.57;;;4.17;;
76256;SDS011;65074;50.436;8.672;2023-06-19T09:08:19;3.95;;;3.35;;
76256;SDS011;65074;50.436;8.672;2023-06-19T09:10:56;4.57;;;3.88;;
76256;SDS011;65074;50.436;8.672;2023-06-19T09:13:21;3.88;;;3.47;;
76256;SDS011;65074;50.436;8.672;2023-06-19T09:15:46;5.18;;;4.07;;
76256;SDS011;65074;50.436;8.672;2023-06-19T09:18:11;5.17;;;3.30;;
76256;SDS011;65074;50.436;8.672;2023-06-19T09:20:38;5.85;;;2.92;;
76256;SDS011;65074;50.436;8.672;2023-06-19T09:23:05;5.55;;;3.28;;
76256;SDS011;65074;50.436;8.672;2023-06-19T09:25:30;4.40;;;3.63;;
76256;SDS011;65074;50.436;8.672;2023-06-19T09:27:56;6.77;;;3.40;;
76256;SDS011;65074;50.436;8.672;2023-06-19T09:30:21;5.25;;;3.83;;
76256;SDS011;65074;50.436;8.672;2023-06-19T09:32:47;4.70;;;3.17;;
76256;SDS011;65074;50.436;8.672;2023-06-19T09:35:12;4.05;;;3.50;;
76256;SDS011;65074;50.436;8.672;2023-06-19T09:37:38;3.97;;;3.50;;
76256;SDS011;65074;50.436;8.672;2023-06-19T09:40:04;4.00;;;3.60;;
76256;SDS011;65074;50.436;8.672;2023-06-19T09:42:39;4.00;;;3.60;;
76256;SDS011;65074;50.436;8.672;2023-06-19T09:45:10;4.18;;;3.22;;
76256;SDS011;65074;50.436;8.672;2023-06-19T09:50:01;4.10;;;3.70;;
76256;SDS011;65074;50.436;8.672;2023-06-19T09:52:27;3.90;;;3.50;;
76256;SDS011;65074;50.436;8.672;2023-06-19T09:55:01;4.90;;;3.95;;
76256;SDS011;65074;50.436;8.672;2023-06-19T09:57:27;3.38;;;2.97;;
76256;SDS011;65074;50.436;8.672;2023-06-19T09:59:54;3.42;;;3.13;;
76256;SDS011;65074;50.436;8.672;2023-06-19T10:02:24;3.25;;;2.95;;
76256;SDS011;65074;50.436;8.672;2023-06-19T10:04:52;4.18;;;3.50;;
76256;SDS011;65074;50.436;8.672;2023-06-19T10:07:21;3.97;;;3.30;;
76256;SDS011;65074;50.436;8.672;2023-06-19T10:10:47;3.70;;;2.95;;
76256;SDS011;65074;50.436;8.672;2023-06-19T10:12:47;4.47;;;2.90;;
76256;SDS011;65074;50.436;8.672;2023-06-19T10:17:42;3.85;;;3.20;;
76256;SDS011;65074;50.436;8.672;2023-06-19T10:20:17;2.72;;;2.30;;
76256;SDS011;65074;50.436;8.672;2023-06-19T10:22:50;4.45;;;2.80;;
76256;SDS011;65074;50.436;8.672;2023-06-19T10:25:19;4.22;;;3.45;;
76256;SDS011;65074;50.436;8.672;2023-06-19T10:27:45;3.47;;;3.08;;
76256;SDS011;65074;50.436;8.672;2023-06-19T10:30:16;3.83;;;3.00;;
76256;SDS011;65074;50.436;8.672;2023-06-19T10:32:41;3.88;;;3.05;;
76256;SDS011;65074;50.436;8.672;2023-06-19T10:35:10;3.83;;;2.73;;
76256;SDS011;65074;50.436;8.672;2023-06-19T10:37:36;3.40;;;2.63;;
76256;SDS011;65074;50.436;8.672;2023-06-19T10:40:01;3.27;;;2.97;;
76256;SDS011;65074;50.436;8.672;2023-06-19T10:42:26;4.20;;;2.80;;
76256;SDS011;65074;50.436;8.672;2023-06-19T10:44:58;4.60;;;2.70;;
76256;SDS011;65074;50.436;8.672;2023-06-19T10:47:23;3.17;;;2.63;;
76256;SDS011;65074;50.436;8.672;2023-06-19T10:49:49;3.20;;;2.72;;
76256;SDS011;65074;50.436;8.672;2023-06-19T10:52:14;3.50;;;2.93;;
76256;SDS011;65074;50.436;8.672;2023-06-19T10:54:40;3.40;;;3.10;;
76256;SDS011;65074;50.436;8.672;2023-06-19T10:57:06;3.03;;;2.53;;
76256;SDS011;65074;50.436;8.672;2023-06-19T10:59:31;2.97;;;2.33;;
76256;SDS011;65074;50.436;8.672;2023-06-19T11:01:58;3.50;;;2.72;;
76256;SDS011;65074;50.436;8.672;2023-06-19T11:04:23;3.97;;;2.60;;
76256;SDS011;65074;50.436;8.672;2023-06-19T11:06:50;3.10;;;2.50;;
76256;SDS011;65074;50.436;8.672;2023-06-19T11:09:15;4.20;;;3.17;;
76256;SDS011;65074;50.436;8.672;2023-06-19T11:11:45;3.05;;;2.75;;
76256;SDS011;65074;50.436;8.672;2023-06-19T11:14:11;4.90;;;3.58;;
76256;SDS011;65074;50.436;8.672;2023-06-19T11:16:38;5.57;;;3.95;;
76256;SDS011;65074;50.436;8.672;2023-06-19T11:19:03;4.50;;;3.88;;
76256;SDS011;65074;50.436;8.672;2023-06-19T11:21:29;4.93;;;3.70;;
76256;SDS011;65074;50.436;8.672;2023-06-19T11:23:55;4.30;;;3.38;;
76256;SDS011;65074;50.436;8.672;2023-06-19T11:26:24;3.17;;;2.88;;
76256;SDS011;65074;50.436;8.672;2023-06-19T11:28:49;4.78;;;3.67;;
76256;SDS011;65074;50.436;8.672;2023-06-19T11:31:14;4.97;;;3.33;;
76256;SDS011;65074;50.436;8.672;2023-06-19T11:33:40;5.82;;;3.33;;
76256;SDS011;65074;50.436;8.672;2023-06-19T11:36:05;3.80;;;3.40;;
76256;SDS011;65074;50.436;8.672;2023-06-19T11:38:32;4.35;;;3.90;;
76256;SDS011;65074;50.436;8.672;2023-06-19T11:41:01;6.32;;;4.13;;
76256;SDS011;65074;50.436;8.672;2023-06-19T11:43:30;4.28;;;3.70;;
76256;SDS011;65074;50.436;8.672;2023-06-19T11:46:01;4.40;;;3.80;;
76256;SDS011;65074;50.436;8.672;2023-06-19T11:48:27;4.03;;;3.53;;
76256;SDS011;65074;50.436;8.672;2023-06-19T11:50:52;3.95;;;3.55;;
76256;SDS011;65074;50.436;8.672;2023-06-19T11:53:19;6.80;;;4.28;;
76256;SDS011;65074;50.436;8.672;2023-06-19T11:55:44;5.05;;;4.03;;
76256;SDS011;65074;50.436;8.672;2023-06-19T11:58:09;4.47;;;3.58;;
76256;SDS011;65074;50.436;8.672;2023-06-19T12:00:38;5.53;;;4.17;;
76256;SDS011;65074;50.436;8.672;2023-06-19T12:03:03;4.93;;;4.10;;
76256;SDS011;65074;50.436;8.672;2023-06-19T12:05:28;6.07;;;4.50;;
76256;SDS011;65074;50.436;8.672;2023-06-19T12:07:54;4.90;;;4.00;;
76256;SDS011;65074;50.436;8.672;2023-06-19T12:10:19;5.43;;;3.78;;
76256;SDS011;65074;50.436;8.672;2023-06-19T12:12:45;5.05;;;4.18;;
76256;SDS011;65074;50.436;8.672;2023-06-19T12:15:10;4.50;;;3.70;;
76256;SDS011;65074;50.436;8.672;2023-06-19T12:17:35;6.07;;;4.50;;
76256;SDS011;65074;50.436;8.672;2023-06-19T12:20:04;4.07;;;3.75;;
76256;SDS011;65074;50.436;8.672;2023-06-19T12:22:33;5.45;;;4.05;;
76256;SDS011;65074;50.436;8.672;2023-06-19T12:24:58;3.85;;;3.42;;
76256;SDS011;65074;50.436;8.672;2023-06-19T12:27:24;3.40;;;3.00;;
76256;SDS011;65074;50.436;8.672;2023-06-19T12:29:49;3.37;;;2.93;;
76256;SDS011;65074;50.436;8.672;2023-06-19T12:32:14;3.50;;;3.20;;
76256;SDS011;65074;50.436;8.672;2023-06-19T12:34:39;3.43;;;3.10;;
76256;SDS011;65074;50.436;8.672;2023-06-19T12:37:05;7.38;;;3.17;;
76256;SDS011;65074;50.436;8.672;2023-06-19T12:39:31;3.95;;;3.10;;
76256;SDS011;65074;50.436;8.672;2023-06-19T12:41:57;3.90;;;2.97;;
76256;SDS011;65074;50.436;8.672;2023-06-19T12:44:23;4.00;;;3.10;;
76256;SDS011;65074;50.436;8.672;2023-06-19T12:46:49;3.88;;;3.13;;
76256;SDS011;65074;50.436;8.672;2023-06-19T12:49:14;3.43;;;3.13;;
76256;SDS011;65074;50.436;8.672;2023-06-19T12:51:40;3.33;;;2.77;;
76256;SDS011;65074;50.436;8.672;2023-06-19T12:54:13;3.37;;;3.07;;
76256;SDS011;65074;50.436;8.672;2023-06-19T12:56:39;3.80;;;3.50;;
76256;SDS011;65074;50.436;8.672;2023-06-19T12:59:04;3.90;;;2.60;;
76256;SDS011;65074;50.436;8.672;2023-06-19T13:01:29;3.47;;;3.17;;
76256;SDS011;65074;50.436;8.672;2023-06-19T13:03:54;3.57;;;3.10;;
76256;SDS011;65074;50.436;8.672;2023-06-19T13:06:20;3.53;;;3.23;;
76256;SDS011;65074;50.436;8.672;2023-06-19T13:08:45;3.27;;;2.97;;
76256;SDS011;65074;50.436;8.672;2023-06-19T13:11:10;3.47;;;2.88;;
76256;SDS011;65074;50.436;8.672;2023-06-19T13:13:35;3.33;;;2.93;;
76256;SDS011;65074;50.436;8.672;2023-06-19T13:16:01;4.07;;;3.43;;
76256;SDS011;65074;50.436;8.672;2023-06-19T13:18:26;4.37;;;3.20;;
76256;SDS011;65074;50.436;8.672;2023-06-19T13:20:51;3.40;;;3.10;;
76256;SDS011;65074;50.436;8.672;2023-06-19T13:23:16;3.63;;;3.33;;
76256;SDS011;65074;50.436;8.672;2023-06-19T13:25:41;3.77;;;3.30;;
76256;SDS011;65074;50.436;8.672;2023-06-19T13:28:07;3.83;;;3.53;;
76256;SDS011;65074;50.436;8.672;2023-06-19T13:30:32;4.50;;;3.37;;
76256;SDS011;65074;50.436;8.672;2023-06-19T13:32:57;3.08;;;2.80;;
76256;SDS011;65074;50.436;8.672;2023-06-19T13:35:23;3.40;;;3.10;;
76256;SDS011;65074;50.436;8.672;2023-06-19T13:37:48;2.97;;;2.77;;
76256;SDS011;65074;50.436;8.672;2023-06-19T13:40:14;4.57;;;2.78;;
76256;SDS011;65074;50.436;8.672;2023-06-19T13:42:39;2.90;;;2.50;;
76256;SDS011;65074;50.436;8.672;2023-06-19T13:45:04;4.20;;;2.73;;
76256;SDS011;65074;50.436;8.672;2023-06-19T13:47:30;3.20;;;2.90;;
76256;SDS011;65074;50.436;8.672;2023-06-19T13:49:55;3.40;;;3.10;;
76256;SDS011;65074;50.436;8.672;2023-06-19T13:52:20;3.40;;;3.10;;
76256;SDS011;65074;50.436;8.672;2023-06-19T13:54:46;6.93;;;3.05;;
76256;SDS011;65074;50.436;8.672;2023-06-19T13:57:11;2.95;;;2.65;;
76256;SDS011;65074;50.436;8.672;2023-06-19T13:59:36;3.80;;;2.83;;
76256;SDS011;65074;50.436;8.672;2023-06-19T14:02:01;3.17;;;2.80;;
76256;SDS011;65074;50.436;8.672;2023-06-19T14:04:27;3.45;;;2.65;;
76256;SDS011;65074;50.436;8.672;2023-06-19T14:06:52;5.47;;;3.05;;
76256;SDS011;65074;50.436;8.672;2023-06-19T14:09:20;4.07;;;2.60;;
76256;SDS011;65074;50.436;8.672;2023-06-19T14:11:45;3.70;;;3.10;;
76256;SDS011;65074;50.436;8.672;2023-06-19T14:14:10;3.63;;;2.90;;
76256;SDS011;65074;50.436;8.672;2023-06-19T14:16:35;3.55;;;2.97;;
76256;SDS011;65074;50.436;8.672;2023-06-19T14:19:01;3.23;;;2.93;;
76256;SDS011;65074;50.436;8.672;2023-06-19T14:21:26;5.73;;;3.03;;
76256;SDS011;65074;50.436;8.672;2023-06-19T14:23:52;4.05;;;2.90;;
76256;SDS011;65074;50.436;8.672;2023-06-19T14:26:17;3.42;;;3.13;;
76256;SDS011;65074;50.436;8.672;2023-06-19T14:28:42;5.07;;;3.23;;
76256;SDS011;65074;50.436;8.672;2023-06-19T14:31:07;3.65;;;2.90;;
76256;SDS011;65074;50.436;8.672;2023-06-19T14:33:33;2.97;;;2.67;;
76256;SDS011;65074;50.436;8.672;2023-06-19T14:36:00;3.10;;;2.80;;
76256;SDS011;65074;50.436;8.672;2023-06-19T14:38:26;3.65;;;2.90;;
76256;SDS011;65074;50.436;8.672;2023-06-19T14:40:56;4.93;;;3.40;;
76256;SDS011;65074;50.436;8.672;2023-06-19T14:43:23;2.83;;;2.45;;
76256;SDS011;65074;50.436;8.672;2023-06-19T14:45:48;3.40;;;2.70;;